sensor_id;sensor_type;location;lat;lon;timestamp;P1;durP1;ratioP1;P2;durP2;ratioP2
68806;SDS011;55800;54.272;18.558;2023-07-30T00:02:03;3.42;;;2.05;;
68806;SDS011;55800;54.272;18.558;2023-07-30T00:04:33;3.60;;;2.50;;
68806;SDS011;55800;54.272;18.558;2023-07-30T00:07:02;5.63;;;2.05;;
68806;SDS011;55800;54.272;18.558;2023-07-30T00:09:31;3.65;;;2.53;;
68806;SDS011;55800;54.272;18.558;2023-07-30T00:12:01;4.43;;;2.70;;
68806;SDS011;55800;54.272;18.558;2023-07-30T00:14:32;3.88;;;2.00;;
68806;SDS011;55800;54.272;18.558;2023-07-30T00:17:02;5.63;;;2.08;;
68806;SDS011;55800;54.272;18.558;2023-07-30T00:19:32;4.03;;;2.38;;
68806;SDS011;55800;54.272;18.558;2023-07-30T00:22:02;3.88;;;2.30;;
68806;SDS011;55800;54.272;18.558;2023-07-30T00:24:32;3.72;;;2.28;;
68806;SDS011;55800;54.272;18.558;2023-07-30T00:27:01;6.00;;;2.58;;
68806;SDS011;55800;54.272;18.558;2023-07-30T00:29:32;3.47;;;2.13;;
68806;SDS011;55800;54.272;18.558;2023-07-30T00:32:02;4.45;;;2.70;;
68806;SDS011;55800;54.272;18.558;2023-07-30T00:34:31;6.00;;;2.20;;
68806;SDS011;55800;54.272;18.558;2023-07-30T00:37:01;3.40;;;1.90;;
68806;SDS011;55800;54.272;18.558;2023-07-30T00:39:30;8.32;;;1.92;;
68806;SDS011;55800;54.272;18.558;2023-07-30T00:42:00;5.28;;;2.55;;
68806;SDS011;55800;54.272;18.558;2023-07-30T00:44:29;4.72;;;1.95;;
68806;SDS011;55800;54.272;18.558;2023-07-30T00:47:00;4.85;;;1.98;;
68806;SDS011;55800;54.272;18.558;2023-07-30T00:49:30;3.70;;;2.10;;
68806;SDS011;55800;54.272;18.558;2023-07-30T00:52:00;2.92;;;2.33;;
68806;SDS011;55800;54.272;18.558;2023-07-30T00:54:31;3.78;;;2.28;;
68806;SDS011;55800;54.272;18.558;2023-07-30T00:57:00;4.28;;;2.15;;
68806;SDS011;55800;54.272;18.558;2023-07-30T00:59:30;4.47;;;2.10;;
68806;SDS011;55800;54.272;18.558;2023-07-30T01:02:01;4.47;;;2.28;;
68806;SDS011;55800;54.272;18.558;2023-07-30T01:04:32;3.15;;;2.20;;
68806;SDS011;55800;54.272;18.558;2023-07-30T01:07:04;4.28;;;2.15;;
68806;SDS011;55800;54.272;18.558;2023-07-30T01:09:33;4.03;;;2.13;;
68806;SDS011;55800;54.272;18.558;2023-07-30T01:12:03;4.13;;;2.15;;
68806;SDS011;55800;54.272;18.558;2023-07-30T01:14:35;3.53;;;2.30;;
68806;SDS011;55800;54.272;18.558;2023-07-30T01:17:07;3.08;;;2.25;;
68806;SDS011;55800;54.272;18.558;2023-07-30T01:19:37;5.03;;;2.53;;
68806;SDS011;55800;54.272;18.558;2023-07-30T01:22:08;3.60;;;2.35;;
68806;SDS011;55800;54.272;18.558;2023-07-30T01:24:37;5.25;;;2.63;;
68806;SDS011;55800;54.272;18.558;2023-07-30T01:27:07;3.78;;;2.40;;
68806;SDS011;55800;54.272;18.558;2023-07-30T01:29:40;4.65;;;2.90;;
68806;SDS011;55800;54.272;18.558;2023-07-30T01:32:13;8.63;;;2.78;;
68806;SDS011;55800;54.272;18.558;2023-07-30T01:34:43;6.00;;;2.47;;
68806;SDS011;55800;54.272;18.558;2023-07-30T01:37:16;5.03;;;2.42;;
68806;SDS011;55800;54.272;18.558;2023-07-30T01:39:46;5.93;;;2.75;;
68806;SDS011;55800;54.272;18.558;2023-07-30T01:42:17;3.65;;;2.33;;
68806;SDS011;55800;54.272;18.558;2023-07-30T01:44:47;4.13;;;2.40;;
68806;SDS011;55800;54.272;18.558;2023-07-30T01:47:16;7.63;;;3.20;;
68806;SDS011;55800;54.272;18.558;2023-07-30T01:49:45;7.03;;;2.70;;
68806;SDS011;55800;54.272;18.558;2023-07-30T01:52:16;6.95;;;3.97;;
68806;SDS011;55800;54.272;18.558;2023-07-30T01:54:45;4.95;;;3.10;;
68806;SDS011;55800;54.272;18.558;2023-07-30T01:57:15;6.20;;;3.42;;
68806;SDS011;55800;54.272;18.558;2023-07-30T01:59:44;5.05;;;2.65;;
68806;SDS011;55800;54.272;18.558;2023-07-30T02:02:13;3.92;;;2.67;;
68806;SDS011;55800;54.272;18.558;2023-07-30T02:04:43;4.57;;;3.47;;
68806;SDS011;55800;54.272;18.558;2023-07-30T02:07:12;5.90;;;2.75;;
68806;SDS011;55800;54.272;18.558;2023-07-30T02:09:43;7.85;;;3.20;;
68806;SDS011;55800;54.272;18.558;2023-07-30T02:12:12;3.90;;;2.30;;
68806;SDS011;55800;54.272;18.558;2023-07-30T02:14:42;5.60;;;3.10;;
68806;SDS011;55800;54.272;18.558;2023-07-30T02:17:11;5.00;;;3.08;;
68806;SDS011;55800;54.272;18.558;2023-07-30T02:19:41;4.65;;;2.90;;
68806;SDS011;55800;54.272;18.558;2023-07-30T02:22:11;5.75;;;3.15;;
68806;SDS011;55800;54.272;18.558;2023-07-30T02:24:40;7.13;;;2.72;;
68806;SDS011;55800;54.272;18.558;2023-07-30T02:27:11;5.22;;;2.92;;
68806;SDS011;55800;54.272;18.558;2023-07-30T02:29:40;7.07;;;3.13;;
68806;SDS011;55800;54.272;18.558;2023-07-30T03:15:28;7.35;;;3.72;;
68806;SDS011;55800;54.272;18.558;2023-07-30T03:17:57;5.90;;;3.92;;
68806;SDS011;55800;54.272;18.558;2023-07-30T03:20:27;5.30;;;3.28;;
68806;SDS011;55800;54.272;18.558;2023-07-30T03:22:57;5.28;;;3.60;;
68806;SDS011;55800;54.272;18.558;2023-07-30T03:30:25;9.68;;;4.10;;
68806;SDS011;55800;54.272;18.558;2023-07-30T03:32:56;4.15;;;2.58;;
68806;SDS011;55800;54.272;18.558;2023-07-30T03:35:25;5.07;;;3.50;;
68806;SDS011;55800;54.272;18.558;2023-07-30T03:37:55;7.95;;;3.67;;
68806;SDS011;55800;54.272;18.558;2023-07-30T03:40:24;6.72;;;3.75;;
68806;SDS011;55800;54.272;18.558;2023-07-30T03:42:53;7.18;;;3.50;;
68806;SDS011;55800;54.272;18.558;2023-07-30T03:50:22;7.80;;;4.13;;
68806;SDS011;55800;54.272;18.558;2023-07-30T03:52:52;6.65;;;4.32;;
68806;SDS011;55800;54.272;18.558;2023-07-30T03:55:21;7.65;;;4.18;;
68806;SDS011;55800;54.272;18.558;2023-07-30T03:57:50;9.88;;;4.38;;
68806;SDS011;55800;54.272;18.558;2023-07-30T04:00:23;9.27;;;5.00;;
68806;SDS011;55800;54.272;18.558;2023-07-30T04:02:56;6.50;;;4.43;;
68806;SDS011;55800;54.272;18.558;2023-07-30T04:05:25;10.07;;;5.38;;
68806;SDS011;55800;54.272;18.558;2023-07-30T04:07:55;7.32;;;4.97;;
68806;SDS011;55800;54.272;18.558;2023-07-30T04:10:24;7.50;;;5.53;;
68806;SDS011;55800;54.272;18.558;2023-07-30T04:12:54;7.10;;;5.10;;
68806;SDS011;55800;54.272;18.558;2023-07-30T04:15:23;7.43;;;4.68;;
68806;SDS011;55800;54.272;18.558;2023-07-30T04:17:52;8.13;;;5.35;;
68806;SDS011;55800;54.272;18.558;2023-07-30T04:20:23;9.07;;;4.95;;
68806;SDS011;55800;54.272;18.558;2023-07-30T04:22:54;10.82;;;5.82;;
68806;SDS011;55800;54.272;18.558;2023-07-30T04:25:24;8.70;;;6.10;;
68806;SDS011;55800;54.272;18.558;2023-07-30T04:27:54;11.68;;;6.00;;
68806;SDS011;55800;54.272;18.558;2023-07-30T04:30:23;9.02;;;5.68;;
68806;SDS011;55800;54.272;18.558;2023-07-30T04:32:53;8.48;;;5.05;;
68806;SDS011;55800;54.272;18.558;2023-07-30T04:35:24;8.63;;;5.60;;
68806;SDS011;55800;54.272;18.558;2023-07-30T04:37:54;7.55;;;5.65;;
68806;SDS011;55800;54.272;18.558;2023-07-30T04:40:23;8.20;;;6.10;;
68806;SDS011;55800;54.272;18.558;2023-07-30T04:42:53;9.55;;;6.22;;
68806;SDS011;55800;54.272;18.558;2023-07-30T04:47:52;8.30;;;5.35;;
68806;SDS011;55800;54.272;18.558;2023-07-30T04:50:21;9.02;;;6.30;;
68806;SDS011;55800;54.272;18.558;2023-07-30T04:52:52;10.38;;;7.68;;
68806;SDS011;55800;54.272;18.558;2023-07-30T04:55:21;10.98;;;6.10;;
68806;SDS011;55800;54.272;18.558;2023-07-30T04:57:51;10.07;;;6.60;;
68806;SDS011;55800;54.272;18.558;2023-07-30T05:00:20;12.48;;;6.68;;
68806;SDS011;55800;54.272;18.558;2023-07-30T05:02:50;10.95;;;7.43;;
68806;SDS011;55800;54.272;18.558;2023-07-30T05:05:20;12.13;;;6.22;;
68806;SDS011;55800;54.272;18.558;2023-07-30T05:07:49;13.57;;;7.57;;
68806;SDS011;55800;54.272;18.558;2023-07-30T05:10:20;11.20;;;6.88;;
68806;SDS011;55800;54.272;18.558;2023-07-30T05:12:50;11.23;;;7.72;;
68806;SDS011;55800;54.272;18.558;2023-07-30T05:17:48;11.35;;;7.53;;
68806;SDS011;55800;54.272;18.558;2023-07-30T05:20:17;12.10;;;8.27;;
68806;SDS011;55800;54.272;18.558;2023-07-30T05:22:47;11.48;;;7.20;;
68806;SDS011;55800;54.272;18.558;2023-07-30T05:25:16;10.93;;;7.05;;
68806;SDS011;55800;54.272;18.558;2023-07-30T05:27:47;12.07;;;6.45;;
68806;SDS011;55800;54.272;18.558;2023-07-30T05:30:16;11.35;;;7.45;;
68806;SDS011;55800;54.272;18.558;2023-07-30T05:32:46;12.80;;;7.80;;
68806;SDS011;55800;54.272;18.558;2023-07-30T05:35:15;11.02;;;6.88;;
68806;SDS011;55800;54.272;18.558;2023-07-30T05:37:45;10.18;;;6.50;;
68806;SDS011;55800;54.272;18.558;2023-07-30T05:42:44;9.00;;;6.80;;
68806;SDS011;55800;54.272;18.558;2023-07-30T05:45:15;13.02;;;7.30;;
68806;SDS011;55800;54.272;18.558;2023-07-30T05:47:46;9.55;;;6.82;;
68806;SDS011;55800;54.272;18.558;2023-07-30T05:50:15;11.13;;;7.85;;
68806;SDS011;55800;54.272;18.558;2023-07-30T05:52:44;11.60;;;6.90;;
68806;SDS011;55800;54.272;18.558;2023-07-30T05:55:14;10.55;;;7.03;;
68806;SDS011;55800;54.272;18.558;2023-07-30T05:57:46;9.95;;;6.40;;
68806;SDS011;55800;54.272;18.558;2023-07-30T06:00:22;10.95;;;6.47;;
68806;SDS011;55800;54.272;18.558;2023-07-30T06:02:52;11.77;;;7.13;;
68806;SDS011;55800;54.272;18.558;2023-07-30T06:05:21;12.75;;;7.00;;
68806;SDS011;55800;54.272;18.558;2023-07-30T06:07:50;10.65;;;7.07;;
68806;SDS011;55800;54.272;18.558;2023-07-30T06:10:20;11.95;;;7.53;;
68806;SDS011;55800;54.272;18.558;2023-07-30T06:12:51;11.20;;;7.00;;
68806;SDS011;55800;54.272;18.558;2023-07-30T06:15:20;10.07;;;6.72;;
68806;SDS011;55800;54.272;18.558;2023-07-30T06:17:49;11.45;;;6.85;;
68806;SDS011;55800;54.272;18.558;2023-07-30T06:20:19;11.10;;;6.70;;
68806;SDS011;55800;54.272;18.558;2023-07-30T06:22:48;13.35;;;6.35;;
68806;SDS011;55800;54.272;18.558;2023-07-30T06:25:18;10.98;;;7.40;;
68806;SDS011;55800;54.272;18.558;2023-07-30T06:27:47;11.30;;;7.38;;
68806;SDS011;55800;54.272;18.558;2023-07-30T06:30:18;13.35;;;8.80;;
68806;SDS011;55800;54.272;18.558;2023-07-30T06:32:47;12.23;;;7.78;;
68806;SDS011;55800;54.272;18.558;2023-07-30T06:35:17;14.63;;;9.35;;
68806;SDS011;55800;54.272;18.558;2023-07-30T06:37:46;13.40;;;8.85;;
68806;SDS011;55800;54.272;18.558;2023-07-30T06:40:15;13.45;;;7.97;;
68806;SDS011;55800;54.272;18.558;2023-07-30T06:42:45;10.70;;;7.35;;
68806;SDS011;55800;54.272;18.558;2023-07-30T06:45:14;10.00;;;6.32;;
68806;SDS011;55800;54.272;18.558;2023-07-30T06:47:45;12.68;;;7.93;;
68806;SDS011;55800;54.272;18.558;2023-07-30T06:50:14;15.13;;;7.95;;
68806;SDS011;55800;54.272;18.558;2023-07-30T06:52:44;12.40;;;7.78;;
68806;SDS011;55800;54.272;18.558;2023-07-30T06:55:13;10.77;;;6.15;;
68806;SDS011;55800;54.272;18.558;2023-07-30T06:57:43;12.48;;;6.78;;
68806;SDS011;55800;54.272;18.558;2023-07-30T07:00:12;11.35;;;6.30;;
68806;SDS011;55800;54.272;18.558;2023-07-30T07:02:50;10.48;;;6.68;;
68806;SDS011;55800;54.272;18.558;2023-07-30T07:05:19;13.20;;;6.40;;
68806;SDS011;55800;54.272;18.558;2023-07-30T07:07:50;12.07;;;7.65;;
68806;SDS011;55800;54.272;18.558;2023-07-30T07:10:19;11.57;;;7.38;;
68806;SDS011;55800;54.272;18.558;2023-07-30T07:12:48;11.25;;;6.78;;
68806;SDS011;55800;54.272;18.558;2023-07-30T07:15:17;8.73;;;5.20;;
68806;SDS011;55800;54.272;18.558;2023-07-30T07:17:47;7.38;;;4.93;;
68806;SDS011;55800;54.272;18.558;2023-07-30T07:20:18;11.90;;;5.68;;
68806;SDS011;55800;54.272;18.558;2023-07-30T07:22:47;9.85;;;4.85;;
68806;SDS011;55800;54.272;18.558;2023-07-30T07:25:16;7.43;;;4.70;;
68806;SDS011;55800;54.272;18.558;2023-07-30T07:27:48;8.23;;;5.60;;
68806;SDS011;55800;54.272;18.558;2023-07-30T07:30:17;8.48;;;5.22;;
68806;SDS011;55800;54.272;18.558;2023-07-30T07:32:47;10.45;;;4.88;;
68806;SDS011;55800;54.272;18.558;2023-07-30T07:35:18;6.72;;;4.35;;
68806;SDS011;55800;54.272;18.558;2023-07-30T07:38:11;8.55;;;5.05;;
68806;SDS011;55800;54.272;18.558;2023-07-30T07:40:51;7.07;;;4.95;;
68806;SDS011;55800;54.272;18.558;2023-07-30T07:43:20;9.13;;;4.78;;
68806;SDS011;55800;54.272;18.558;2023-07-30T07:45:50;8.77;;;4.75;;
68806;SDS011;55800;54.272;18.558;2023-07-30T07:48:21;9.25;;;5.55;;
68806;SDS011;55800;54.272;18.558;2023-07-30T07:50:51;8.75;;;4.65;;
68806;SDS011;55800;54.272;18.558;2023-07-30T07:53:21;8.40;;;4.90;;
68806;SDS011;55800;54.272;18.558;2023-07-30T07:55:51;8.93;;;4.13;;
68806;SDS011;55800;54.272;18.558;2023-07-30T07:58:20;9.23;;;5.07;;
68806;SDS011;55800;54.272;18.558;2023-07-30T08:00:50;7.22;;;3.90;;
68806;SDS011;55800;54.272;18.558;2023-07-30T08:03:23;10.02;;;4.40;;
68806;SDS011;55800;54.272;18.558;2023-07-30T08:05:54;8.02;;;3.97;;
68806;SDS011;55800;54.272;18.558;2023-07-30T08:08:24;8.20;;;3.72;;
68806;SDS011;55800;54.272;18.558;2023-07-30T08:10:54;7.53;;;4.43;;
68806;SDS011;55800;54.272;18.558;2023-07-30T08:13:23;7.78;;;4.90;;
68806;SDS011;55800;54.272;18.558;2023-07-30T08:15:52;7.32;;;3.88;;
68806;SDS011;55800;54.272;18.558;2023-07-30T08:18:21;8.13;;;3.95;;
68806;SDS011;55800;54.272;18.558;2023-07-30T08:20:53;7.75;;;4.03;;
68806;SDS011;55800;54.272;18.558;2023-07-30T08:23:24;8.80;;;3.80;;
68806;SDS011;55800;54.272;18.558;2023-07-30T08:25:54;7.03;;;3.60;;
68806;SDS011;55800;54.272;18.558;2023-07-30T08:28:23;5.82;;;2.97;;
68806;SDS011;55800;54.272;18.558;2023-07-30T08:30:53;7.93;;;4.28;;
68806;SDS011;55800;54.272;18.558;2023-07-30T08:33:28;8.00;;;4.78;;
68806;SDS011;55800;54.272;18.558;2023-07-30T08:35:58;12.55;;;4.45;;
68806;SDS011;55800;54.272;18.558;2023-07-30T08:38:28;7.10;;;3.92;;
68806;SDS011;55800;54.272;18.558;2023-07-30T08:40:58;6.70;;;3.90;;
68806;SDS011;55800;54.272;18.558;2023-07-30T08:43:27;7.25;;;3.90;;
68806;SDS011;55800;54.272;18.558;2023-07-30T08:45:57;6.70;;;3.63;;
68806;SDS011;55800;54.272;18.558;2023-07-30T08:48:30;6.05;;;3.45;;
68806;SDS011;55800;54.272;18.558;2023-07-30T08:50:59;7.47;;;3.88;;
68806;SDS011;55800;54.272;18.558;2023-07-30T08:53:29;6.65;;;3.65;;
68806;SDS011;55800;54.272;18.558;2023-07-30T08:55:59;6.63;;;3.35;;
68806;SDS011;55800;54.272;18.558;2023-07-30T08:58:29;6.32;;;3.38;;
68806;SDS011;55800;54.272;18.558;2023-07-30T09:01:01;9.30;;;3.97;;
68806;SDS011;55800;54.272;18.558;2023-07-30T09:03:38;6.35;;;3.00;;
68806;SDS011;55800;54.272;18.558;2023-07-30T09:06:08;7.65;;;3.22;;
68806;SDS011;55800;54.272;18.558;2023-07-30T09:08:37;6.60;;;3.65;;
68806;SDS011;55800;54.272;18.558;2023-07-30T09:11:07;5.03;;;2.83;;
68806;SDS011;55800;54.272;18.558;2023-07-30T09:13:37;4.40;;;2.75;;
68806;SDS011;55800;54.272;18.558;2023-07-30T09:16:10;5.53;;;3.00;;
68806;SDS011;55800;54.272;18.558;2023-07-30T09:18:42;6.50;;;3.30;;
68806;SDS011;55800;54.272;18.558;2023-07-30T09:21:15;7.95;;;3.88;;
68806;SDS011;55800;54.272;18.558;2023-07-30T09:23:45;5.68;;;3.08;;
68806;SDS011;55800;54.272;18.558;2023-07-30T09:26:14;6.35;;;3.03;;
68806;SDS011;55800;54.272;18.558;2023-07-30T09:28:44;5.22;;;3.65;;
68806;SDS011;55800;54.272;18.558;2023-07-30T09:31:13;6.45;;;2.67;;
68806;SDS011;55800;54.272;18.558;2023-07-30T09:33:50;7.07;;;3.15;;
68806;SDS011;55800;54.272;18.558;2023-07-30T09:36:20;4.85;;;2.75;;
68806;SDS011;55800;54.272;18.558;2023-07-30T09:38:50;7.00;;;3.75;;
68806;SDS011;55800;54.272;18.558;2023-07-30T09:41:19;5.90;;;3.10;;
68806;SDS011;55800;54.272;18.558;2023-07-30T09:43:56;4.50;;;2.30;;
68806;SDS011;55800;54.272;18.558;2023-07-30T09:46:28;6.75;;;2.60;;
68806;SDS011;55800;54.272;18.558;2023-07-30T09:48:59;6.38;;;2.53;;
68806;SDS011;55800;54.272;18.558;2023-07-30T09:51:31;6.65;;;2.90;;
68806;SDS011;55800;54.272;18.558;2023-07-30T09:54:02;7.68;;;3.15;;
68806;SDS011;55800;54.272;18.558;2023-07-30T09:56:33;6.75;;;3.13;;
68806;SDS011;55800;54.272;18.558;2023-07-30T09:59:04;5.63;;;2.80;;
68806;SDS011;55800;54.272;18.558;2023-07-30T10:01:34;6.00;;;2.38;;
68806;SDS011;55800;54.272;18.558;2023-07-30T10:04:08;6.25;;;3.05;;
68806;SDS011;55800;54.272;18.558;2023-07-30T10:06:41;5.63;;;3.40;;
68806;SDS011;55800;54.272;18.558;2023-07-30T10:09:17;7.88;;;3.05;;
68806;SDS011;55800;54.272;18.558;2023-07-30T10:11:51;5.78;;;3.08;;
68806;SDS011;55800;54.272;18.558;2023-07-30T10:14:22;5.07;;;2.72;;
68806;SDS011;55800;54.272;18.558;2023-07-30T10:16:54;6.25;;;2.75;;
68806;SDS011;55800;54.272;18.558;2023-07-30T10:19:28;7.18;;;2.70;;
68806;SDS011;55800;54.272;18.558;2023-07-30T10:24:58;7.00;;;2.45;;
68806;SDS011;55800;54.272;18.558;2023-07-30T10:27:35;4.88;;;2.85;;
68806;SDS011;55800;54.272;18.558;2023-07-30T10:30:09;4.45;;;2.65;;
68806;SDS011;55800;54.272;18.558;2023-07-30T10:32:40;6.55;;;2.65;;
68806;SDS011;55800;54.272;18.558;2023-07-30T10:35:14;5.70;;;2.10;;
68806;SDS011;55800;54.272;18.558;2023-07-30T10:38:14;5.47;;;2.63;;
68806;SDS011;55800;54.272;18.558;2023-07-30T10:41:00;5.45;;;2.60;;
68806;SDS011;55800;54.272;18.558;2023-07-30T10:43:31;7.00;;;2.78;;
68806;SDS011;55800;54.272;18.558;2023-07-30T10:46:02;5.40;;;2.80;;
68806;SDS011;55800;54.272;18.558;2023-07-30T10:48:32;4.32;;;2.20;;
68806;SDS011;55800;54.272;18.558;2023-07-30T10:51:05;4.32;;;2.15;;
68806;SDS011;55800;54.272;18.558;2023-07-30T10:53:36;3.97;;;2.38;;
68806;SDS011;55800;54.272;18.558;2023-07-30T10:56:06;6.00;;;2.67;;
68806;SDS011;55800;54.272;18.558;2023-07-30T10:58:37;3.90;;;2.15;;
68806;SDS011;55800;54.272;18.558;2023-07-30T11:01:07;6.32;;;2.50;;
68806;SDS011;55800;54.272;18.558;2023-07-30T11:03:37;5.35;;;2.60;;
68806;SDS011;55800;54.272;18.558;2023-07-30T11:06:08;4.97;;;2.45;;
68806;SDS011;55800;54.272;18.558;2023-07-30T11:08:38;4.82;;;2.35;;
68806;SDS011;55800;54.272;18.558;2023-07-30T11:11:09;4.03;;;2.05;;
68806;SDS011;55800;54.272;18.558;2023-07-30T11:13:39;4.22;;;1.80;;
68806;SDS011;55800;54.272;18.558;2023-07-30T11:16:10;2.33;;;1.52;;
68806;SDS011;55800;54.272;18.558;2023-07-30T11:18:40;3.33;;;1.50;;
68806;SDS011;55800;54.272;18.558;2023-07-30T11:21:12;2.80;;;1.80;;
68806;SDS011;55800;54.272;18.558;2023-07-30T11:23:43;4.53;;;1.80;;
68806;SDS011;55800;54.272;18.558;2023-07-30T11:26:15;5.03;;;2.67;;
68806;SDS011;55800;54.272;18.558;2023-07-30T11:28:45;5.50;;;2.35;;
68806;SDS011;55800;54.272;18.558;2023-07-30T11:31:15;6.68;;;2.80;;
68806;SDS011;55800;54.272;18.558;2023-07-30T11:33:48;3.50;;;2.08;;
68806;SDS011;55800;54.272;18.558;2023-07-30T11:36:21;4.22;;;2.10;;
68806;SDS011;55800;54.272;18.558;2023-07-30T11:38:53;3.83;;;2.55;;
68806;SDS011;55800;54.272;18.558;2023-07-30T11:41:23;4.82;;;2.55;;
68806;SDS011;55800;54.272;18.558;2023-07-30T11:43:53;3.42;;;1.95;;
68806;SDS011;55800;54.272;18.558;2023-07-30T11:46:23;14.57;;;2.88;;
68806;SDS011;55800;54.272;18.558;2023-07-30T11:48:53;4.65;;;2.60;;
68806;SDS011;55800;54.272;18.558;2023-07-30T11:51:40;3.17;;;2.13;;
68806;SDS011;55800;54.272;18.558;2023-07-30T11:54:18;3.80;;;2.00;;
68806;SDS011;55800;54.272;18.558;2023-07-30T11:56:53;6.05;;;2.55;;
68806;SDS011;55800;54.272;18.558;2023-07-30T11:59:23;4.47;;;2.60;;
68806;SDS011;55800;54.272;18.558;2023-07-30T12:01:52;5.97;;;2.45;;
68806;SDS011;55800;54.272;18.558;2023-07-30T12:04:22;4.75;;;2.20;;
68806;SDS011;55800;54.272;18.558;2023-07-30T12:06:53;4.32;;;2.08;;
68806;SDS011;55800;54.272;18.558;2023-07-30T12:09:23;6.63;;;2.80;;
68806;SDS011;55800;54.272;18.558;2023-07-30T12:11:54;5.18;;;2.42;;
68806;SDS011;55800;54.272;18.558;2023-07-30T12:14:25;6.68;;;2.40;;
68806;SDS011;55800;54.272;18.558;2023-07-30T12:16:58;7.78;;;2.80;;
68806;SDS011;55800;54.272;18.558;2023-07-30T12:19:27;5.22;;;2.42;;
68806;SDS011;55800;54.272;18.558;2023-07-30T12:21:59;5.72;;;2.45;;
68806;SDS011;55800;54.272;18.558;2023-07-30T12:24:28;5.32;;;2.70;;
68806;SDS011;55800;54.272;18.558;2023-07-30T12:26:57;6.53;;;2.38;;
68806;SDS011;55800;54.272;18.558;2023-07-30T12:29:27;5.75;;;2.63;;
68806;SDS011;55800;54.272;18.558;2023-07-30T12:31:56;4.50;;;2.65;;
68806;SDS011;55800;54.272;18.558;2023-07-30T12:34:30;5.50;;;2.30;;
68806;SDS011;55800;54.272;18.558;2023-07-30T12:37:00;6.90;;;3.17;;
68806;SDS011;55800;54.272;18.558;2023-07-30T12:39:30;4.82;;;2.83;;
68806;SDS011;55800;54.272;18.558;2023-07-30T12:41:59;5.78;;;2.95;;
68806;SDS011;55800;54.272;18.558;2023-07-30T12:44:29;5.70;;;2.60;;
68806;SDS011;55800;54.272;18.558;2023-07-30T12:46:58;5.97;;;2.65;;
68806;SDS011;55800;54.272;18.558;2023-07-30T12:49:27;4.28;;;2.47;;
68806;SDS011;55800;54.272;18.558;2023-07-30T12:51:57;5.30;;;2.72;;
68806;SDS011;55800;54.272;18.558;2023-07-30T12:54:28;5.20;;;3.08;;
68806;SDS011;55800;54.272;18.558;2023-07-30T12:56:57;5.30;;;2.70;;
68806;SDS011;55800;54.272;18.558;2023-07-30T12:59:26;4.50;;;2.45;;
68806;SDS011;55800;54.272;18.558;2023-07-30T13:01:56;6.65;;;2.80;;
68806;SDS011;55800;54.272;18.558;2023-07-30T13:04:25;4.97;;;2.42;;
68806;SDS011;55800;54.272;18.558;2023-07-30T13:06:55;4.20;;;2.40;;
68806;SDS011;55800;54.272;18.558;2023-07-30T13:09:24;4.70;;;2.92;;
68806;SDS011;55800;54.272;18.558;2023-07-30T13:11:55;4.28;;;2.75;;
68806;SDS011;55800;54.272;18.558;2023-07-30T13:14:25;4.97;;;2.22;;
68806;SDS011;55800;54.272;18.558;2023-07-30T13:16:54;5.47;;;2.17;;
68806;SDS011;55800;54.272;18.558;2023-07-30T13:19:24;4.18;;;2.50;;
68806;SDS011;55800;54.272;18.558;2023-07-30T13:21:55;5.15;;;2.78;;
68806;SDS011;55800;54.272;18.558;2023-07-30T13:24:24;6.40;;;2.72;;
68806;SDS011;55800;54.272;18.558;2023-07-30T13:26:58;4.22;;;2.20;;
68806;SDS011;55800;54.272;18.558;2023-07-30T13:29:28;4.47;;;2.35;;
68806;SDS011;55800;54.272;18.558;2023-07-30T13:31:58;3.45;;;2.33;;
68806;SDS011;55800;54.272;18.558;2023-07-30T13:34:27;5.40;;;2.35;;
68806;SDS011;55800;54.272;18.558;2023-07-30T13:36:56;7.18;;;2.60;;
68806;SDS011;55800;54.272;18.558;2023-07-30T13:39:26;4.82;;;2.80;;
68806;SDS011;55800;54.272;18.558;2023-07-30T13:41:55;5.03;;;2.45;;
68806;SDS011;55800;54.272;18.558;2023-07-30T13:44:26;6.95;;;2.65;;
68806;SDS011;55800;54.272;18.558;2023-07-30T13:46:56;6.22;;;2.10;;
68806;SDS011;55800;54.272;18.558;2023-07-30T13:49:25;4.97;;;2.67;;
68806;SDS011;55800;54.272;18.558;2023-07-30T13:51:54;3.72;;;2.00;;
68806;SDS011;55800;54.272;18.558;2023-07-30T13:54:24;4.63;;;2.92;;
68806;SDS011;55800;54.272;18.558;2023-07-30T13:56:53;5.47;;;2.30;;
68806;SDS011;55800;54.272;18.558;2023-07-30T13:59:24;4.40;;;2.17;;
68806;SDS011;55800;54.272;18.558;2023-07-30T14:01:53;3.40;;;2.20;;
68806;SDS011;55800;54.272;18.558;2023-07-30T14:04:22;4.47;;;2.60;;
68806;SDS011;55800;54.272;18.558;2023-07-30T14:06:52;3.72;;;2.00;;
68806;SDS011;55800;54.272;18.558;2023-07-30T14:09:21;6.63;;;3.17;;
68806;SDS011;55800;54.272;18.558;2023-07-30T14:11:54;4.43;;;2.38;;
68806;SDS011;55800;54.272;18.558;2023-07-30T14:14:25;4.82;;;2.17;;
68806;SDS011;55800;54.272;18.558;2023-07-30T14:16:54;6.68;;;2.58;;
68806;SDS011;55800;54.272;18.558;2023-07-30T14:19:24;4.50;;;2.65;;
68806;SDS011;55800;54.272;18.558;2023-07-30T14:21:53;3.72;;;2.30;;
68806;SDS011;55800;54.272;18.558;2023-07-30T14:24:22;3.63;;;2.15;;
68806;SDS011;55800;54.272;18.558;2023-07-30T14:26:52;4.80;;;2.00;;
68806;SDS011;55800;54.272;18.558;2023-07-30T14:29:21;5.65;;;2.05;;
68806;SDS011;55800;54.272;18.558;2023-07-30T14:31:52;7.22;;;2.45;;
68806;SDS011;55800;54.272;18.558;2023-07-30T14:34:21;9.95;;;2.22;;
68806;SDS011;55800;54.272;18.558;2023-07-30T14:36:51;6.82;;;2.22;;
68806;SDS011;55800;54.272;18.558;2023-07-30T14:39:20;10.57;;;3.97;;
68806;SDS011;55800;54.272;18.558;2023-07-30T14:41:49;7.10;;;1.85;;
68806;SDS011;55800;54.272;18.558;2023-07-30T14:44:19;9.55;;;2.22;;
68806;SDS011;55800;54.272;18.558;2023-07-30T14:46:48;4.93;;;2.03;;
68806;SDS011;55800;54.272;18.558;2023-07-30T14:49:19;7.75;;;2.95;;
68806;SDS011;55800;54.272;18.558;2023-07-30T14:51:48;5.00;;;1.63;;
68806;SDS011;55800;54.272;18.558;2023-07-30T14:54:19;5.88;;;1.92;;
68806;SDS011;55800;54.272;18.558;2023-07-30T14:56:49;6.15;;;2.50;;
68806;SDS011;55800;54.272;18.558;2023-07-30T14:59:18;6.93;;;2.20;;
68806;SDS011;55800;54.272;18.558;2023-07-30T15:01:47;5.10;;;2.35;;
68806;SDS011;55800;54.272;18.558;2023-07-30T15:04:16;8.15;;;2.30;;
68806;SDS011;55800;54.272;18.558;2023-07-30T15:06:48;6.55;;;2.45;;
68806;SDS011;55800;54.272;18.558;2023-07-30T15:09:17;4.97;;;1.77;;
68806;SDS011;55800;54.272;18.558;2023-07-30T15:11:47;6.10;;;2.20;;
68806;SDS011;55800;54.272;18.558;2023-07-30T15:14:16;6.63;;;1.80;;
68806;SDS011;55800;54.272;18.558;2023-07-30T15:16:46;6.50;;;2.60;;
68806;SDS011;55800;54.272;18.558;2023-07-30T15:19:16;5.10;;;2.20;;
68806;SDS011;55800;54.272;18.558;2023-07-30T15:21:49;7.95;;;2.50;;
68806;SDS011;55800;54.272;18.558;2023-07-30T15:24:32;8.43;;;2.27;;
68806;SDS011;55800;54.272;18.558;2023-07-30T15:27:13;6.53;;;2.78;;
68806;SDS011;55800;54.272;18.558;2023-07-30T15:29:54;2.92;;;2.03;;
68806;SDS011;55800;54.272;18.558;2023-07-30T15:32:31;7.65;;;2.20;;
68806;SDS011;55800;54.272;18.558;2023-07-30T15:35:13;5.05;;;2.67;;
68806;SDS011;55800;54.272;18.558;2023-07-30T15:37:44;5.25;;;2.40;;
68806;SDS011;55800;54.272;18.558;2023-07-30T15:40:15;4.78;;;2.10;;
68806;SDS011;55800;54.272;18.558;2023-07-30T15:42:45;3.55;;;1.85;;
68806;SDS011;55800;54.272;18.558;2023-07-30T15:45:14;6.20;;;2.30;;
68806;SDS011;55800;54.272;18.558;2023-07-30T15:47:44;8.85;;;2.97;;
68806;SDS011;55800;54.272;18.558;2023-07-30T15:50:14;5.68;;;2.20;;
68806;SDS011;55800;54.272;18.558;2023-07-30T15:52:45;6.03;;;2.20;;
68806;SDS011;55800;54.272;18.558;2023-07-30T15:55:15;6.47;;;2.10;;
68806;SDS011;55800;54.272;18.558;2023-07-30T15:57:45;4.95;;;1.98;;